Karachi Weather



Karachi's Current Weather

Temprature 26o scattered clouds

scattered clouds

Rain: 0 %

Min Temprature26o
Max Temprature26o
Humidity29
Wind Speed5.1 m/h
Sun Rise06:59:56
Sun Set18:30:51
Current Time: 23-Feb-2019 15:44:12
Lat/Lon: 24.87, 67.03




Karachi's Geo Location




Karachi's Weather Forecast

Time Overall Temp Min Temp Max Temp Humidity Wind Speed Rain
23-Feb-2019 (Sat)
17:00:00 few clouds 25.200 24.174 25.200 74 5.61 m/h 0 %
20:00:00 scattered clouds 22.660 21.884 22.660 87 4.22 m/h 0 %
23:00:00 few clouds 21.280 20.765 21.280 96 4.57 m/h 0 %
24-Feb-2019 (Sun)
02:00:00 clear sky 21.390 21.135 21.390 95 5.56 m/h 0 %
05:00:00 broken clouds 21.192 21.192 21.192 95 7.61 m/h 0 %
08:00:00 few clouds 21.628 21.628 21.628 92 7.36 m/h 0 %
11:00:00 clear sky 23.524 23.524 23.524 81 6.01 m/h 0 %
14:00:00 clear sky 24.031 24.031 24.031 78 7.17 m/h 0 %
17:00:00 clear sky 23.146 23.146 23.146 83 7.35 m/h 0 %
20:00:00 clear sky 22.018 22.018 22.018 92 6.66 m/h 0 %
23:00:00 clear sky 21.761 21.761 21.761 94 6.21 m/h 0 %
25-Feb-2019 (Mon)
02:00:00 clear sky 21.530 21.530 21.530 95 6.12 m/h 0 %
05:00:00 clear sky 21.327 21.327 21.327 94 6.26 m/h 0 %
08:00:00 clear sky 21.895 21.895 21.895 92 6.22 m/h 0 %
11:00:00 clear sky 24.222 24.222 24.222 80 6.56 m/h 0 %
14:00:00 clear sky 24.473 24.473 24.473 76 8.22 m/h 0 %
17:00:00 clear sky 23.837 23.837 23.837 79 8.36 m/h 0 %
20:00:00 clear sky 22.923 22.923 22.923 87 8.06 m/h 0 %
23:00:00 clear sky 22.967 22.967 22.967 85 8.36 m/h 0 %
26-Feb-2019 (Tue)
02:00:00 clear sky 20.151 20.151 20.151 98 5.41 m/h 0 %
05:00:00 clear sky 17.622 17.622 17.622 100 2.76 m/h 0 %
08:00:00 clear sky 17.707 17.707 17.707 100 4.02 m/h 0 %
11:00:00 clear sky 20.342 20.342 20.342 93 2.82 m/h 0 %
14:00:00 clear sky 22.996 22.996 22.996 82 1.11 m/h 0 %
17:00:00 clear sky 23.239 23.239 23.239 79 4.56 m/h 0 %
20:00:00 clear sky 21.936 21.936 21.936 84 5.87 m/h 0 %
23:00:00 clear sky 20.848 20.848 20.848 90 4.02 m/h 0 %
27-Feb-2019 (Wed)
02:00:00 clear sky 19.881 19.881 19.881 97 4.91 m/h 0 %
05:00:00 clear sky 19.169 19.169 19.169 100 4.55 m/h 0 %
08:00:00 clear sky 19.465 19.465 19.465 97 2.62 m/h 0 %
11:00:00 clear sky 23.145 23.145 23.145 79 1.06 m/h 0 %
14:00:00 clear sky 23.961 23.961 23.961 76 3.4 m/h 0 %
17:00:00 clear sky 23.573 23.573 23.573 77 4.06 m/h 0 %
20:00:00 clear sky 21.442 21.442 21.442 89 3.92 m/h 0 %
23:00:00 few clouds 20.566 20.566 20.566 95 3.47 m/h 0 %
28-Feb-2019 (Thu)
02:00:00 clear sky 20.891 20.891 20.891 93 3.61 m/h 0 %
05:00:00 overcast clouds 20.988 20.988 20.988 93 2.21 m/h 0 %
08:00:00 clear sky 21.140 21.140 21.140 93 1.51 m/h 0 %
11:00:00 clear sky 23.547 23.547 23.547 81 2.56 m/h 0 %
14:00:00 clear sky 24.454 24.454 24.454 77 4.37 m/h 0 %


Karachi's Tourist Spots

Parks and Zoos in Karachi

Famous Cities (60)